sensor_id;sensor_type;location;lat;lon;timestamp;P1;durP1;ratioP1;P2;durP2;ratioP2
22363;SDS011;11349;53.412;-1.328;2023-02-28T00:00:17;6.95;;;4.60;;
22363;SDS011;11349;53.412;-1.328;2023-02-28T00:02:44;5.97;;;3.97;;
22363;SDS011;11349;53.412;-1.328;2023-02-28T00:05:11;6.25;;;3.47;;
22363;SDS011;11349;53.412;-1.328;2023-02-28T00:07:40;8.30;;;3.05;;
22363;SDS011;11349;53.412;-1.328;2023-02-28T00:10:09;6.55;;;3.55;;
22363;SDS011;11349;53.412;-1.328;2023-02-28T00:12:37;7.32;;;3.40;;
22363;SDS011;11349;53.412;-1.328;2023-02-28T00:15:10;7.28;;;2.88;;
22363;SDS011;11349;53.412;-1.328;2023-02-28T00:17:36;7.10;;;3.17;;
22363;SDS011;11349;53.412;-1.328;2023-02-28T00:20:02;5.50;;;3.35;;
22363;SDS011;11349;53.412;-1.328;2023-02-28T00:22:31;6.88;;;3.70;;
22363;SDS011;11349;53.412;-1.328;2023-02-28T00:24:57;8.27;;;4.10;;
22363;SDS011;11349;53.412;-1.328;2023-02-28T00:27:22;9.35;;;4.50;;
22363;SDS011;11349;53.412;-1.328;2023-02-28T00:29:48;11.95;;;5.65;;
22363;SDS011;11349;53.412;-1.328;2023-02-28T00:32:14;11.07;;;6.50;;
22363;SDS011;11349;53.412;-1.328;2023-02-28T00:34:40;17.63;;;8.75;;
22363;SDS011;11349;53.412;-1.328;2023-02-28T00:37:06;12.70;;;8.52;;
22363;SDS011;11349;53.412;-1.328;2023-02-28T00:39:34;14.98;;;9.05;;
22363;SDS011;11349;53.412;-1.328;2023-02-28T00:42:01;12.52;;;8.27;;
22363;SDS011;11349;53.412;-1.328;2023-02-28T00:44:28;13.65;;;8.85;;
22363;SDS011;11349;53.412;-1.328;2023-02-28T00:46:54;14.32;;;8.93;;
22363;SDS011;11349;53.412;-1.328;2023-02-28T00:49:21;15.05;;;8.50;;
22363;SDS011;11349;53.412;-1.328;2023-02-28T00:51:47;14.13;;;8.48;;
22363;SDS011;11349;53.412;-1.328;2023-02-28T00:54:13;13.93;;;8.68;;
22363;SDS011;11349;53.412;-1.328;2023-02-28T00:56:39;13.45;;;8.57;;
22363;SDS011;11349;53.412;-1.328;2023-02-28T00:59:05;11.07;;;9.00;;
22363;SDS011;11349;53.412;-1.328;2023-02-28T01:01:31;12.07;;;8.90;;
22363;SDS011;11349;53.412;-1.328;2023-02-28T01:03:56;12.57;;;8.90;;
22363;SDS011;11349;53.412;-1.328;2023-02-28T01:06:22;13.05;;;8.27;;
22363;SDS011;11349;53.412;-1.328;2023-02-28T01:08:48;13.02;;;8.85;;
22363;SDS011;11349;53.412;-1.328;2023-02-28T01:11:15;12.18;;;7.82;;
22363;SDS011;11349;53.412;-1.328;2023-02-28T01:13:42;11.82;;;7.90;;
22363;SDS011;11349;53.412;-1.328;2023-02-28T01:16:09;10.23;;;7.43;;
22363;SDS011;11349;53.412;-1.328;2023-02-28T01:18:35;14.18;;;7.60;;
22363;SDS011;11349;53.412;-1.328;2023-02-28T01:21:05;11.27;;;6.45;;
22363;SDS011;11349;53.412;-1.328;2023-02-28T01:23:31;10.30;;;6.90;;
22363;SDS011;11349;53.412;-1.328;2023-02-28T01:26:02;9.73;;;5.93;;
22363;SDS011;11349;53.412;-1.328;2023-02-28T01:28:37;9.73;;;6.00;;
22363;SDS011;11349;53.412;-1.328;2023-02-28T01:31:03;10.25;;;5.72;;
22363;SDS011;11349;53.412;-1.328;2023-02-28T01:33:29;12.57;;;7.43;;
22363;SDS011;11349;53.412;-1.328;2023-02-28T01:35:58;11.07;;;6.93;;
22363;SDS011;11349;53.412;-1.328;2023-02-28T01:38:25;17.98;;;8.85;;
22363;SDS011;11349;53.412;-1.328;2023-02-28T01:40:51;13.98;;;6.20;;
22363;SDS011;11349;53.412;-1.328;2023-02-28T01:43:21;11.85;;;6.32;;
22363;SDS011;11349;53.412;-1.328;2023-02-28T01:45:49;9.77;;;5.95;;
22363;SDS011;11349;53.412;-1.328;2023-02-28T01:48:16;9.27;;;5.53;;
22363;SDS011;11349;53.412;-1.328;2023-02-28T01:50:43;11.20;;;4.97;;
22363;SDS011;11349;53.412;-1.328;2023-02-28T01:53:13;10.52;;;4.72;;
22363;SDS011;11349;53.412;-1.328;2023-02-28T01:55:42;8.30;;;4.65;;
22363;SDS011;11349;53.412;-1.328;2023-02-28T01:58:13;9.93;;;4.40;;
22363;SDS011;11349;53.412;-1.328;2023-02-28T02:00:39;9.68;;;5.10;;
22363;SDS011;11349;53.412;-1.328;2023-02-28T02:03:11;12.48;;;6.03;;
22363;SDS011;11349;53.412;-1.328;2023-02-28T02:05:39;11.48;;;6.43;;
22363;SDS011;11349;53.412;-1.328;2023-02-28T02:08:07;9.73;;;6.38;;
22363;SDS011;11349;53.412;-1.328;2023-02-28T02:10:41;13.32;;;6.75;;
22363;SDS011;11349;53.412;-1.328;2023-02-28T02:13:38;9.85;;;4.78;;
22363;SDS011;11349;53.412;-1.328;2023-02-28T02:38:03;5.60;;;2.50;;
22363;SDS011;11349;53.412;-1.328;2023-02-28T02:40:36;6.68;;;2.67;;
22363;SDS011;11349;53.412;-1.328;2023-02-28T02:43:08;6.18;;;2.78;;
22363;SDS011;11349;53.412;-1.328;2023-02-28T02:45:54;10.35;;;4.50;;
22363;SDS011;11349;53.412;-1.328;2023-02-28T02:48:25;7.25;;;3.60;;
22363;SDS011;11349;53.412;-1.328;2023-02-28T02:50:56;10.10;;;4.35;;
22363;SDS011;11349;53.412;-1.328;2023-02-28T02:53:36;8.35;;;3.65;;
22363;SDS011;11349;53.412;-1.328;2023-02-28T02:56:06;6.60;;;2.90;;
22363;SDS011;11349;53.412;-1.328;2023-02-28T02:58:37;6.53;;;3.53;;
22363;SDS011;11349;53.412;-1.328;2023-02-28T03:01:07;5.43;;;2.83;;
22363;SDS011;11349;53.412;-1.328;2023-02-28T03:03:39;8.98;;;3.10;;
22363;SDS011;11349;53.412;-1.328;2023-02-28T03:06:05;6.43;;;3.13;;
22363;SDS011;11349;53.412;-1.328;2023-02-28T03:08:35;5.07;;;3.20;;
22363;SDS011;11349;53.412;-1.328;2023-02-28T03:11:03;7.85;;;3.55;;
22363;SDS011;11349;53.412;-1.328;2023-02-28T03:19:03;8.32;;;3.55;;
22363;SDS011;11349;53.412;-1.328;2023-02-28T03:21:37;7.47;;;4.30;;
22363;SDS011;11349;53.412;-1.328;2023-02-28T03:24:11;7.30;;;4.15;;
22363;SDS011;11349;53.412;-1.328;2023-02-28T03:26:55;7.00;;;4.18;;
22363;SDS011;11349;53.412;-1.328;2023-02-28T03:29:40;10.60;;;4.65;;
22363;SDS011;11349;53.412;-1.328;2023-02-28T03:35:25;9.68;;;5.75;;
22363;SDS011;11349;53.412;-1.328;2023-02-28T03:38:00;10.05;;;5.28;;
22363;SDS011;11349;53.412;-1.328;2023-02-28T03:40:48;8.93;;;4.72;;
22363;SDS011;11349;53.412;-1.328;2023-02-28T03:43:18;10.18;;;4.80;;
22363;SDS011;11349;53.412;-1.328;2023-02-28T03:45:52;5.43;;;3.83;;
22363;SDS011;11349;53.412;-1.328;2023-02-28T03:50:49;10.60;;;5.88;;
22363;SDS011;11349;53.412;-1.328;2023-02-28T03:53:25;8.57;;;5.28;;
22363;SDS011;11349;53.412;-1.328;2023-02-28T03:56:06;11.10;;;6.45;;
22363;SDS011;11349;53.412;-1.328;2023-02-28T04:04:01;11.60;;;6.75;;
22363;SDS011;11349;53.412;-1.328;2023-02-28T04:06:27;10.95;;;7.65;;
22363;SDS011;11349;53.412;-1.328;2023-02-28T04:08:56;10.80;;;7.50;;
22363;SDS011;11349;53.412;-1.328;2023-02-28T04:11:23;14.88;;;7.80;;
22363;SDS011;11349;53.412;-1.328;2023-02-28T04:14:06;11.93;;;7.93;;
22363;SDS011;11349;53.412;-1.328;2023-02-28T04:16:34;13.15;;;7.78;;
22363;SDS011;11349;53.412;-1.328;2023-02-28T04:19:04;10.52;;;7.70;;
22363;SDS011;11349;53.412;-1.328;2023-02-28T04:21:32;12.43;;;8.27;;
22363;SDS011;11349;53.412;-1.328;2023-02-28T04:24:06;14.63;;;8.55;;
22363;SDS011;11349;53.412;-1.328;2023-02-28T04:26:38;9.90;;;7.93;;
22363;SDS011;11349;53.412;-1.328;2023-02-28T04:29:06;11.15;;;8.43;;
22363;SDS011;11349;53.412;-1.328;2023-02-28T04:31:32;11.65;;;8.10;;
22363;SDS011;11349;53.412;-1.328;2023-02-28T04:33:59;12.55;;;8.35;;
22363;SDS011;11349;53.412;-1.328;2023-02-28T04:36:25;9.80;;;6.97;;
22363;SDS011;11349;53.412;-1.328;2023-02-28T04:38:51;10.60;;;8.02;;
22363;SDS011;11349;53.412;-1.328;2023-02-28T04:41:17;10.95;;;7.38;;
22363;SDS011;11349;53.412;-1.328;2023-02-28T04:43:43;12.10;;;7.47;;
22363;SDS011;11349;53.412;-1.328;2023-02-28T04:46:08;11.20;;;8.25;;
22363;SDS011;11349;53.412;-1.328;2023-02-28T04:48:35;11.38;;;8.32;;
22363;SDS011;11349;53.412;-1.328;2023-02-28T04:51:04;9.82;;;7.65;;
22363;SDS011;11349;53.412;-1.328;2023-02-28T04:53:35;12.38;;;8.15;;
22363;SDS011;11349;53.412;-1.328;2023-02-28T04:56:01;10.93;;;7.70;;
22363;SDS011;11349;53.412;-1.328;2023-02-28T04:58:27;12.07;;;7.90;;
22363;SDS011;11349;53.412;-1.328;2023-02-28T05:00:57;10.45;;;6.85;;
22363;SDS011;11349;53.412;-1.328;2023-02-28T05:03:28;13.95;;;7.47;;
22363;SDS011;11349;53.412;-1.328;2023-02-28T05:05:53;10.65;;;6.85;;
22363;SDS011;11349;53.412;-1.328;2023-02-28T05:08:19;10.18;;;6.85;;
22363;SDS011;11349;53.412;-1.328;2023-02-28T05:10:45;12.07;;;6.30;;
22363;SDS011;11349;53.412;-1.328;2023-02-28T05:13:11;9.35;;;5.78;;
22363;SDS011;11349;53.412;-1.328;2023-02-28T05:15:38;11.25;;;6.43;;
22363;SDS011;11349;53.412;-1.328;2023-02-28T05:18:04;10.13;;;6.18;;
22363;SDS011;11349;53.412;-1.328;2023-02-28T05:20:29;9.43;;;7.03;;
22363;SDS011;11349;53.412;-1.328;2023-02-28T05:22:55;9.85;;;6.85;;
22363;SDS011;11349;53.412;-1.328;2023-02-28T05:25:23;9.93;;;6.65;;
22363;SDS011;11349;53.412;-1.328;2023-02-28T05:27:49;14.57;;;7.53;;
22363;SDS011;11349;53.412;-1.328;2023-02-28T05:30:15;9.82;;;7.40;;
22363;SDS011;11349;53.412;-1.328;2023-02-28T05:32:41;11.18;;;7.10;;
22363;SDS011;11349;53.412;-1.328;2023-02-28T05:35:10;12.32;;;7.45;;
22363;SDS011;11349;53.412;-1.328;2023-02-28T05:37:37;10.13;;;6.47;;
22363;SDS011;11349;53.412;-1.328;2023-02-28T05:40:04;12.85;;;6.95;;
22363;SDS011;11349;53.412;-1.328;2023-02-28T05:42:36;11.13;;;6.53;;
22363;SDS011;11349;53.412;-1.328;2023-02-28T05:45:03;9.52;;;6.10;;
22363;SDS011;11349;53.412;-1.328;2023-02-28T05:47:30;8.70;;;6.72;;
22363;SDS011;11349;53.412;-1.328;2023-02-28T05:49:56;9.15;;;6.18;;
22363;SDS011;11349;53.412;-1.328;2023-02-28T05:52:22;10.18;;;6.72;;
22363;SDS011;11349;53.412;-1.328;2023-02-28T05:54:48;10.93;;;7.18;;
22363;SDS011;11349;53.412;-1.328;2023-02-28T05:57:14;13.88;;;7.40;;
22363;SDS011;11349;53.412;-1.328;2023-02-28T05:59:40;14.63;;;7.60;;
22363;SDS011;11349;53.412;-1.328;2023-02-28T06:02:08;13.63;;;7.68;;
22363;SDS011;11349;53.412;-1.328;2023-02-28T06:04:37;12.10;;;8.43;;
22363;SDS011;11349;53.412;-1.328;2023-02-28T06:07:03;13.57;;;8.30;;
22363;SDS011;11349;53.412;-1.328;2023-02-28T06:09:29;14.43;;;8.32;;
22363;SDS011;11349;53.412;-1.328;2023-02-28T06:11:57;11.82;;;8.25;;
22363;SDS011;11349;53.412;-1.328;2023-02-28T06:14:28;14.35;;;8.02;;
22363;SDS011;11349;53.412;-1.328;2023-02-28T06:16:56;12.40;;;7.50;;
22363;SDS011;11349;53.412;-1.328;2023-02-28T06:19:22;15.00;;;7.65;;
22363;SDS011;11349;53.412;-1.328;2023-02-28T06:21:50;13.15;;;7.85;;
22363;SDS011;11349;53.412;-1.328;2023-02-28T06:24:18;12.10;;;7.25;;
22363;SDS011;11349;53.412;-1.328;2023-02-28T06:26:44;13.52;;;7.30;;
22363;SDS011;11349;53.412;-1.328;2023-02-28T06:29:10;12.70;;;7.22;;
22363;SDS011;11349;53.412;-1.328;2023-02-28T06:31:36;12.77;;;6.32;;
22363;SDS011;11349;53.412;-1.328;2023-02-28T06:34:03;10.40;;;6.80;;
22363;SDS011;11349;53.412;-1.328;2023-02-28T06:36:29;9.75;;;6.22;;
22363;SDS011;11349;53.412;-1.328;2023-02-28T06:38:55;11.00;;;6.18;;
22363;SDS011;11349;53.412;-1.328;2023-02-28T06:41:25;10.52;;;6.50;;
22363;SDS011;11349;53.412;-1.328;2023-02-28T06:43:51;12.52;;;6.40;;
22363;SDS011;11349;53.412;-1.328;2023-02-28T06:46:18;10.10;;;6.47;;
22363;SDS011;11349;53.412;-1.328;2023-02-28T06:48:46;11.25;;;6.07;;
22363;SDS011;11349;53.412;-1.328;2023-02-28T06:51:13;10.35;;;5.82;;
22363;SDS011;11349;53.412;-1.328;2023-02-28T06:53:41;10.82;;;6.20;;
22363;SDS011;11349;53.412;-1.328;2023-02-28T06:56:08;10.80;;;6.22;;
22363;SDS011;11349;53.412;-1.328;2023-02-28T06:58:37;12.25;;;6.75;;
22363;SDS011;11349;53.412;-1.328;2023-02-28T07:01:04;11.27;;;6.43;;
22363;SDS011;11349;53.412;-1.328;2023-02-28T07:03:31;12.77;;;6.25;;
22363;SDS011;11349;53.412;-1.328;2023-02-28T07:05:57;9.68;;;6.40;;
22363;SDS011;11349;53.412;-1.328;2023-02-28T07:08:23;11.18;;;6.45;;
22363;SDS011;11349;53.412;-1.328;2023-02-28T07:10:52;11.18;;;6.05;;
22363;SDS011;11349;53.412;-1.328;2023-02-28T07:13:21;12.73;;;7.38;;
22363;SDS011;11349;53.412;-1.328;2023-02-28T07:16:02;12.75;;;6.97;;
22363;SDS011;11349;53.412;-1.328;2023-02-28T07:18:29;13.90;;;7.53;;
22363;SDS011;11349;53.412;-1.328;2023-02-28T07:20:56;13.18;;;7.28;;
22363;SDS011;11349;53.412;-1.328;2023-02-28T07:23:22;17.85;;;9.10;;
22363;SDS011;11349;53.412;-1.328;2023-02-28T07:25:48;15.10;;;8.60;;
22363;SDS011;11349;53.412;-1.328;2023-02-28T07:28:15;15.90;;;8.00;;
22363;SDS011;11349;53.412;-1.328;2023-02-28T07:30:41;13.10;;;8.23;;
22363;SDS011;11349;53.412;-1.328;2023-02-28T07:33:07;16.90;;;8.77;;
22363;SDS011;11349;53.412;-1.328;2023-02-28T07:35:33;17.10;;;8.30;;
22363;SDS011;11349;53.412;-1.328;2023-02-28T07:37:59;16.65;;;8.55;;
22363;SDS011;11349;53.412;-1.328;2023-02-28T07:40:25;16.42;;;7.93;;
22363;SDS011;11349;53.412;-1.328;2023-02-28T07:42:51;14.35;;;7.45;;
22363;SDS011;11349;53.412;-1.328;2023-02-28T07:45:17;16.08;;;7.47;;
22363;SDS011;11349;53.412;-1.328;2023-02-28T07:47:44;13.52;;;7.47;;
22363;SDS011;11349;53.412;-1.328;2023-02-28T07:50:11;13.40;;;6.82;;
22363;SDS011;11349;53.412;-1.328;2023-02-28T07:52:38;12.20;;;6.78;;
22363;SDS011;11349;53.412;-1.328;2023-02-28T07:55:05;12.20;;;7.20;;
22363;SDS011;11349;53.412;-1.328;2023-02-28T07:57:32;12.40;;;7.22;;
22363;SDS011;11349;53.412;-1.328;2023-02-28T07:59:58;15.00;;;7.25;;
22363;SDS011;11349;53.412;-1.328;2023-02-28T08:02:24;11.70;;;7.00;;
22363;SDS011;11349;53.412;-1.328;2023-02-28T08:04:49;13.15;;;7.00;;
22363;SDS011;11349;53.412;-1.328;2023-02-28T08:07:15;14.55;;;7.97;;
22363;SDS011;11349;53.412;-1.328;2023-02-28T08:09:42;12.52;;;7.68;;
22363;SDS011;11349;53.412;-1.328;2023-02-28T08:12:08;11.18;;;6.22;;
22363;SDS011;11349;53.412;-1.328;2023-02-28T08:14:35;13.65;;;6.78;;
22363;SDS011;11349;53.412;-1.328;2023-02-28T08:17:01;12.15;;;6.13;;
22363;SDS011;11349;53.412;-1.328;2023-02-28T08:19:28;11.73;;;6.53;;
22363;SDS011;11349;53.412;-1.328;2023-02-28T08:21:54;13.43;;;6.68;;
22363;SDS011;11349;53.412;-1.328;2023-02-28T08:24:21;12.55;;;7.25;;
22363;SDS011;11349;53.412;-1.328;2023-02-28T08:26:47;14.68;;;5.88;;
22363;SDS011;11349;53.412;-1.328;2023-02-28T08:29:13;11.95;;;6.10;;
22363;SDS011;11349;53.412;-1.328;2023-02-28T08:31:39;10.32;;;5.10;;
22363;SDS011;11349;53.412;-1.328;2023-02-28T08:34:10;13.23;;;6.43;;
22363;SDS011;11349;53.412;-1.328;2023-02-28T08:36:37;10.13;;;5.45;;
22363;SDS011;11349;53.412;-1.328;2023-02-28T08:39:04;10.88;;;5.60;;
22363;SDS011;11349;53.412;-1.328;2023-02-28T08:41:30;8.05;;;5.40;;
22363;SDS011;11349;53.412;-1.328;2023-02-28T08:43:56;10.60;;;6.20;;
22363;SDS011;11349;53.412;-1.328;2023-02-28T08:46:22;8.68;;;5.05;;
22363;SDS011;11349;53.412;-1.328;2023-02-28T08:48:51;9.52;;;5.28;;
22363;SDS011;11349;53.412;-1.328;2023-02-28T08:51:18;8.95;;;5.45;;
22363;SDS011;11349;53.412;-1.328;2023-02-28T08:53:47;11.68;;;5.88;;
22363;SDS011;11349;53.412;-1.328;2023-02-28T08:56:14;11.32;;;5.03;;
22363;SDS011;11349;53.412;-1.328;2023-02-28T08:58:45;12.70;;;5.22;;
22363;SDS011;11349;53.412;-1.328;2023-02-28T09:01:13;9.60;;;4.75;;
22363;SDS011;11349;53.412;-1.328;2023-02-28T09:03:46;10.43;;;5.18;;
22363;SDS011;11349;53.412;-1.328;2023-02-28T09:06:14;9.05;;;4.28;;
22363;SDS011;11349;53.412;-1.328;2023-02-28T09:08:41;9.90;;;3.95;;
22363;SDS011;11349;53.412;-1.328;2023-02-28T09:11:07;9.65;;;4.20;;
22363;SDS011;11349;53.412;-1.328;2023-02-28T09:13:34;9.02;;;4.20;;
22363;SDS011;11349;53.412;-1.328;2023-02-28T09:16:00;6.40;;;3.28;;
22363;SDS011;11349;53.412;-1.328;2023-02-28T09:18:28;9.35;;;3.40;;
22363;SDS011;11349;53.412;-1.328;2023-02-28T09:20:54;7.65;;;3.47;;
22363;SDS011;11349;53.412;-1.328;2023-02-28T09:23:20;7.20;;;3.78;;
22363;SDS011;11349;53.412;-1.328;2023-02-28T09:25:51;8.73;;;3.78;;
22363;SDS011;11349;53.412;-1.328;2023-02-28T09:28:18;5.25;;;3.05;;
22363;SDS011;11349;53.412;-1.328;2023-02-28T09:30:45;7.45;;;3.13;;
22363;SDS011;11349;53.412;-1.328;2023-02-28T09:33:12;8.35;;;3.30;;
22363;SDS011;11349;53.412;-1.328;2023-02-28T09:35:42;6.45;;;3.00;;
22363;SDS011;11349;53.412;-1.328;2023-02-28T09:38:08;5.60;;;3.33;;
22363;SDS011;11349;53.412;-1.328;2023-02-28T09:40:39;6.05;;;3.38;;
22363;SDS011;11349;53.412;-1.328;2023-02-28T09:43:14;6.28;;;3.47;;
22363;SDS011;11349;53.412;-1.328;2023-02-28T09:45:42;7.10;;;3.80;;
22363;SDS011;11349;53.412;-1.328;2023-02-28T09:48:19;9.65;;;3.22;;
22363;SDS011;11349;53.412;-1.328;2023-02-28T09:50:50;6.90;;;3.67;;
22363;SDS011;11349;53.412;-1.328;2023-02-28T09:53:29;6.25;;;3.20;;
22363;SDS011;11349;53.412;-1.328;2023-02-28T09:55:59;5.03;;;2.78;;
22363;SDS011;11349;53.412;-1.328;2023-02-28T09:58:42;5.80;;;2.75;;
22363;SDS011;11349;53.412;-1.328;2023-02-28T10:01:37;7.05;;;3.05;;
22363;SDS011;11349;53.412;-1.328;2023-02-28T10:12:44;6.07;;;3.30;;
22363;SDS011;11349;53.412;-1.328;2023-02-28T10:15:15;8.98;;;2.90;;
22363;SDS011;11349;53.412;-1.328;2023-02-28T10:17:42;7.43;;;3.60;;
22363;SDS011;11349;53.412;-1.328;2023-02-28T10:20:13;7.95;;;3.13;;
22363;SDS011;11349;53.412;-1.328;2023-02-28T10:25:21;6.65;;;2.60;;
22363;SDS011;11349;53.412;-1.328;2023-02-28T10:27:49;4.90;;;2.55;;
22363;SDS011;11349;53.412;-1.328;2023-02-28T10:30:37;6.38;;;2.50;;
22363;SDS011;11349;53.412;-1.328;2023-02-28T10:33:19;5.93;;;2.70;;
22363;SDS011;11349;53.412;-1.328;2023-02-28T10:35:48;6.10;;;3.15;;
22363;SDS011;11349;53.412;-1.328;2023-02-28T10:38:16;9.50;;;2.75;;
22363;SDS011;11349;53.412;-1.328;2023-02-28T10:40:45;6.57;;;2.50;;
22363;SDS011;11349;53.412;-1.328;2023-02-28T10:46:25;6.03;;;2.30;;
22363;SDS011;11349;53.412;-1.328;2023-02-28T10:48:45;4.53;;;2.10;;
22363;SDS011;11349;53.412;-1.328;2023-02-28T10:51:37;4.93;;;2.05;;
22363;SDS011;11349;53.412;-1.328;2023-02-28T10:54:04;4.45;;;2.15;;
22363;SDS011;11349;53.412;-1.328;2023-02-28T10:56:31;3.88;;;2.17;;
22363;SDS011;11349;53.412;-1.328;2023-02-28T11:01:45;6.00;;;2.00;;
22363;SDS011;11349;53.412;-1.328;2023-02-28T11:06:46;5.30;;;1.83;;
22363;SDS011;11349;53.412;-1.328;2023-02-28T11:09:30;6.30;;;2.35;;
22363;SDS011;11349;53.412;-1.328;2023-02-28T11:12:20;5.38;;;2.00;;
22363;SDS011;11349;53.412;-1.328;2023-02-28T11:15:05;4.93;;;1.70;;
22363;SDS011;11349;53.412;-1.328;2023-02-28T11:17:43;9.55;;;2.40;;
22363;SDS011;11349;53.412;-1.328;2023-02-28T11:20:19;5.43;;;2.08;;
22363;SDS011;11349;53.412;-1.328;2023-02-28T11:22:48;5.20;;;1.90;;
22363;SDS011;11349;53.412;-1.328;2023-02-28T11:25:28;2.75;;;1.38;;
22363;SDS011;11349;53.412;-1.328;2023-02-28T11:28:03;5.55;;;1.90;;
22363;SDS011;11349;53.412;-1.328;2023-02-28T11:30:38;3.90;;;1.98;;
22363;SDS011;11349;53.412;-1.328;2023-02-28T11:38:49;3.10;;;1.90;;
22363;SDS011;11349;53.412;-1.328;2023-02-28T11:46:50;4.60;;;1.73;;
22363;SDS011;11349;53.412;-1.328;2023-02-28T11:54:53;3.92;;;1.60;;
22363;SDS011;11349;53.412;-1.328;2023-02-28T12:08:51;4.10;;;1.90;;
22363;SDS011;11349;53.412;-1.328;2023-02-28T12:11:29;5.82;;;2.20;;
22363;SDS011;11349;53.412;-1.328;2023-02-28T12:16:40;3.78;;;1.92;;
22363;SDS011;11349;53.412;-1.328;2023-02-28T12:19:30;4.93;;;1.92;;
22363;SDS011;11349;53.412;-1.328;2023-02-28T12:27:33;4.07;;;1.92;;
22363;SDS011;11349;53.412;-1.328;2023-02-28T12:30:08;4.22;;;2.00;;
22363;SDS011;11349;53.412;-1.328;2023-02-28T12:32:51;3.90;;;1.70;;
22363;SDS011;11349;53.412;-1.328;2023-02-28T12:35:23;4.18;;;1.50;;
22363;SDS011;11349;53.412;-1.328;2023-02-28T12:40:42;3.13;;;1.30;;
22363;SDS011;11349;53.412;-1.328;2023-02-28T12:43:12;2.80;;;1.63;;
22363;SDS011;11349;53.412;-1.328;2023-02-28T12:51:04;2.72;;;1.40;;
22363;SDS011;11349;53.412;-1.328;2023-02-28T12:53:53;2.78;;;1.30;;
22363;SDS011;11349;53.412;-1.328;2023-02-28T12:59:13;3.75;;;2.28;;
22363;SDS011;11349;53.412;-1.328;2023-02-28T13:05:24;4.78;;;1.90;;
22363;SDS011;11349;53.412;-1.328;2023-02-28T13:09:59;2.67;;;1.80;;
22363;SDS011;11349;53.412;-1.328;2023-02-28T13:12:27;3.83;;;1.60;;
22363;SDS011;11349;53.412;-1.328;2023-02-28T13:15:05;4.50;;;1.67;;
22363;SDS011;11349;53.412;-1.328;2023-02-28T13:17:36;3.58;;;2.08;;
22363;SDS011;11349;53.412;-1.328;2023-02-28T13:20:03;4.22;;;2.25;;
22363;SDS011;11349;53.412;-1.328;2023-02-28T13:22:42;3.72;;;1.73;;
22363;SDS011;11349;53.412;-1.328;2023-02-28T13:27:56;3.90;;;1.90;;
22363;SDS011;11349;53.412;-1.328;2023-02-28T13:38:49;4.13;;;1.63;;
22363;SDS011;11349;53.412;-1.328;2023-02-28T13:46:26;5.13;;;1.77;;
22363;SDS011;11349;53.412;-1.328;2023-02-28T13:48:52;3.75;;;1.88;;
22363;SDS011;11349;53.412;-1.328;2023-02-28T14:03:07;5.00;;;2.55;;
22363;SDS011;11349;53.412;-1.328;2023-02-28T14:05:44;4.15;;;2.60;;
22363;SDS011;11349;53.412;-1.328;2023-02-28T14:08:15;5.25;;;3.17;;
22363;SDS011;11349;53.412;-1.328;2023-02-28T14:10:47;3.88;;;2.17;;
22363;SDS011;11349;53.412;-1.328;2023-02-28T14:16:09;6.72;;;2.13;;
22363;SDS011;11349;53.412;-1.328;2023-02-28T14:18:40;6.85;;;1.90;;
22363;SDS011;11349;53.412;-1.328;2023-02-28T14:24:03;2.63;;;1.60;;
22363;SDS011;11349;53.412;-1.328;2023-02-28T14:30:56;4.32;;;1.30;;
22363;SDS011;11349;53.412;-1.328;2023-02-28T14:33:18;3.17;;;1.20;;
22363;SDS011;11349;53.412;-1.328;2023-02-28T14:38:46;3.97;;;1.05;;
22363;SDS011;11349;53.412;-1.328;2023-02-28T14:41:21;1.48;;;0.70;;
22363;SDS011;11349;53.412;-1.328;2023-02-28T14:43:50;5.28;;;1.40;;
22363;SDS011;11349;53.412;-1.328;2023-02-28T14:46:21;5.22;;;1.40;;
22363;SDS011;11349;53.412;-1.328;2023-02-28T14:48:50;5.35;;;1.40;;
22363;SDS011;11349;53.412;-1.328;2023-02-28T14:51:21;5.20;;;1.70;;
22363;SDS011;11349;53.412;-1.328;2023-02-28T14:53:50;4.63;;;1.20;;
22363;SDS011;11349;53.412;-1.328;2023-02-28T14:56:22;7.90;;;2.42;;
22363;SDS011;11349;53.412;-1.328;2023-02-28T14:58:51;2.97;;;1.25;;
22363;SDS011;11349;53.412;-1.328;2023-02-28T15:01:20;5.55;;;2.30;;
22363;SDS011;11349;53.412;-1.328;2023-02-28T15:03:47;6.32;;;3.08;;
22363;SDS011;11349;53.412;-1.328;2023-02-28T15:06:21;4.55;;;1.40;;
22363;SDS011;11349;53.412;-1.328;2023-02-28T15:08:48;4.00;;;2.05;;
22363;SDS011;11349;53.412;-1.328;2023-02-28T15:11:33;8.40;;;5.15;;
22363;SDS011;11349;53.412;-1.328;2023-02-28T15:13:59;7.88;;;4.25;;
22363;SDS011;11349;53.412;-1.328;2023-02-28T15:16:36;7.13;;;3.67;;
22363;SDS011;11349;53.412;-1.328;2023-02-28T15:19:11;5.95;;;3.40;;
22363;SDS011;11349;53.412;-1.328;2023-02-28T15:21:59;4.78;;;2.75;;
22363;SDS011;11349;53.412;-1.328;2023-02-28T15:24:41;8.15;;;3.03;;
22363;SDS011;11349;53.412;-1.328;2023-02-28T15:27:23;3.55;;;1.88;;
22363;SDS011;11349;53.412;-1.328;2023-02-28T15:29:56;4.80;;;1.30;;
22363;SDS011;11349;53.412;-1.328;2023-02-28T15:32:36;6.22;;;1.33;;
22363;SDS011;11349;53.412;-1.328;2023-02-28T15:43:06;13.43;;;11.63;;
22363;SDS011;11349;53.412;-1.328;2023-02-28T15:45:47;2.65;;;1.38;;
22363;SDS011;11349;53.412;-1.328;2023-02-28T15:48:26;3.97;;;1.60;;
22363;SDS011;11349;53.412;-1.328;2023-02-28T15:56:57;5.80;;;1.70;;
22363;SDS011;11349;53.412;-1.328;2023-02-28T15:59:18;5.18;;;2.15;;
22363;SDS011;11349;53.412;-1.328;2023-02-28T16:01:47;5.13;;;2.03;;
22363;SDS011;11349;53.412;-1.328;2023-02-28T16:04:26;4.97;;;2.45;;
22363;SDS011;11349;53.412;-1.328;2023-02-28T16:09:25;4.70;;;1.67;;
22363;SDS011;11349;53.412;-1.328;2023-02-28T16:11:53;3.70;;;1.20;;
22363;SDS011;11349;53.412;-1.328;2023-02-28T16:14:24;2.88;;;1.20;;
22363;SDS011;11349;53.412;-1.328;2023-02-28T16:16:56;5.28;;;1.55;;
22363;SDS011;11349;53.412;-1.328;2023-02-28T16:19:27;4.70;;;1.77;;
22363;SDS011;11349;53.412;-1.328;2023-02-28T16:21:53;13.07;;;10.25;;
22363;SDS011;11349;53.412;-1.328;2023-02-28T16:24:19;9.73;;;7.07;;
22363;SDS011;11349;53.412;-1.328;2023-02-28T16:26:45;6.43;;;4.55;;
22363;SDS011;11349;53.412;-1.328;2023-02-28T16:29:19;7.13;;;4.00;;
22363;SDS011;11349;53.412;-1.328;2023-02-28T16:31:53;10.10;;;4.20;;
22363;SDS011;11349;53.412;-1.328;2023-02-28T16:34:19;7.88;;;4.13;;
22363;SDS011;11349;53.412;-1.328;2023-02-28T16:36:46;7.07;;;4.13;;
22363;SDS011;11349;53.412;-1.328;2023-02-28T16:39:13;8.02;;;3.97;;
22363;SDS011;11349;53.412;-1.328;2023-02-28T16:41:41;6.32;;;3.65;;
22363;SDS011;11349;53.412;-1.328;2023-02-28T16:44:26;4.80;;;2.55;;
22363;SDS011;11349;53.412;-1.328;2023-02-28T16:46:58;6.63;;;2.47;;
22363;SDS011;11349;53.412;-1.328;2023-02-28T16:49:25;5.32;;;1.58;;
22363;SDS011;11349;53.412;-1.328;2023-02-28T16:51:51;3.47;;;1.10;;
22363;SDS011;11349;53.412;-1.328;2023-02-28T16:54:16;3.28;;;1.50;;
22363;SDS011;11349;53.412;-1.328;2023-02-28T16:56:43;4.70;;;1.38;;
22363;SDS011;11349;53.412;-1.328;2023-02-28T16:59:11;4.88;;;1.58;;
22363;SDS011;11349;53.412;-1.328;2023-02-28T17:01:38;5.40;;;2.00;;
22363;SDS011;11349;53.412;-1.328;2023-02-28T17:04:04;3.00;;;1.23;;
22363;SDS011;11349;53.412;-1.328;2023-02-28T17:06:30;5.43;;;1.85;;
22363;SDS011;11349;53.412;-1.328;2023-02-28T17:08:56;4.05;;;1.42;;
22363;SDS011;11349;53.412;-1.328;2023-02-28T17:11:24;5.63;;;2.10;;
22363;SDS011;11349;53.412;-1.328;2023-02-28T17:13:50;7.10;;;2.97;;
22363;SDS011;11349;53.412;-1.328;2023-02-28T17:18:53;6.32;;;2.55;;
22363;SDS011;11349;53.412;-1.328;2023-02-28T17:21:23;4.55;;;2.45;;
22363;SDS011;11349;53.412;-1.328;2023-02-28T17:23:49;5.93;;;1.90;;
22363;SDS011;11349;53.412;-1.328;2023-02-28T17:26:16;4.90;;;2.13;;
22363;SDS011;11349;53.412;-1.328;2023-02-28T17:28:49;3.42;;;1.48;;
22363;SDS011;11349;53.412;-1.328;2023-02-28T17:31:15;2.65;;;0.88;;
22363;SDS011;11349;53.412;-1.328;2023-02-28T17:33:41;2.33;;;0.85;;